createdAt,value
2022-08-07T00:00:39.850Z,98574.41
2022-08-07T00:03:08.735Z,98576.50
2022-08-07T00:05:37.261Z,98590.78
2022-08-07T00:08:07.862Z,98591.16
2022-08-07T00:10:48.240Z,98589.50
2022-08-07T00:13:27.168Z,98583.25
2022-08-07T00:15:55.725Z,98586.47
2022-08-07T00:18:25.760Z,98581.59
2022-08-07T00:20:54.666Z,98574.53
2022-08-07T00:23:22.777Z,98575.69
2022-08-07T00:25:51.888Z,98574.03
2022-08-07T00:28:33.746Z,98579.22
2022-08-07T00:31:05.787Z,98581.63
2022-08-07T00:33:35.621Z,98576.16
2022-08-07T00:36:03.859Z,98584.03
2022-08-07T00:38:33.380Z,98577.88
2022-08-07T00:41:01.988Z,98571.81
2022-08-07T00:44:01.217Z,98577.69
2022-08-07T00:46:20.104Z,98581.28
2022-08-07T00:48:51.773Z,98588.31
2022-08-07T00:51:20.546Z,98584.75
2022-08-07T00:53:55.235Z,98592.41
2022-08-07T00:56:30.062Z,98595.44
2022-08-07T00:59:00.116Z,98588.88
2022-08-07T01:01:28.560Z,98585.44
2022-08-07T01:04:10.028Z,98583.53
2022-08-07T01:06:38.707Z,98593.03
2022-08-07T01:09:07.061Z,98588.69
2022-08-07T01:12:10.024Z,98590.88
2022-08-07T01:14:28.360Z,98585.47
2022-08-07T01:16:57.841Z,98585.81
2022-08-07T01:19:26.035Z,98577.09
2022-08-07T01:21:56.077Z,98575.00
2022-08-07T01:24:24.533Z,98577.72
2022-08-07T01:26:53.879Z,98568.50
2022-08-07T01:29:27.864Z,98564.13
2022-08-07T01:31:59.796Z,98573.41
2022-08-07T01:34:30.776Z,98564.72
2022-08-07T01:37:01.808Z,98566.28
2022-08-07T01:39:40.900Z,98567.63
2022-08-07T01:42:40.281Z,98566.00
2022-08-07T01:45:04.111Z,98566.56
2022-08-07T01:48:21.264Z,98573.69
2022-08-07T01:50:22.601Z,98571.25
2022-08-07T01:52:56.638Z,98566.34
2022-08-07T01:55:28.837Z,98570.72
2022-08-07T01:58:01.523Z,98570.47
2022-08-07T02:00:38.789Z,98569.41
2022-08-07T02:03:26.465Z,98573.50
2022-08-07T02:06:08.811Z,98569.41
2022-08-07T02:08:54.346Z,98562.31
2022-08-07T02:11:30.874Z,98566.94
2022-08-07T02:14:14.556Z,98553.88
2022-08-07T02:17:00.624Z,98559.09
2022-08-07T02:20:07.709Z,98560.47
2022-08-07T02:22:21.039Z,98553.97
2022-08-07T02:24:56.179Z,98557.28
2022-08-07T02:27:25.468Z,98554.31
2022-08-07T02:29:55.088Z,98557.03
2022-08-07T02:32:26.979Z,98552.94
2022-08-07T02:35:01.001Z,98546.72
2022-08-07T02:37:36.098Z,98544.00
2022-08-07T02:40:30.149Z,98548.63
2022-08-07T02:42:56.916Z,98547.56
2022-08-07T02:45:59.057Z,98548.94
2022-08-07T02:48:15.535Z,98543.22
2022-08-07T02:50:46.128Z,98538.59
2022-08-07T02:53:17.541Z,98539.16
2022-08-07T02:56:04.447Z,98542.13
2022-08-07T02:58:34.907Z,98538.06
2022-08-07T03:01:04.954Z,98533.09
2022-08-07T03:03:49.504Z,98541.22
2022-08-07T03:06:26.104Z,98537.69
2022-08-07T03:09:02.387Z,98539.13
2022-08-07T03:11:38.709Z,98534.47
2022-08-07T03:14:07.158Z,98533.44
2022-08-07T03:16:36.189Z,98535.91
2022-08-07T03:19:07.224Z,98533.47
2022-08-07T03:21:37.230Z,98537.00
2022-08-07T03:24:20.820Z,98545.16
2022-08-07T03:26:58.349Z,98541.34
2022-08-07T03:29:29.893Z,98535.09
2022-08-07T03:31:58.792Z,98537.59
2022-08-07T03:34:28.535Z,98536.28
2022-08-07T03:36:58.062Z,98540.63
2022-08-07T03:39:59.851Z,98546.38
2022-08-07T03:42:17.683Z,98540.13
2022-08-07T03:44:53.475Z,98541.47
2022-08-07T03:47:24.319Z,98541.75
2022-08-07T03:49:53.491Z,98545.81
2022-08-07T03:52:26.651Z,98537.88
2022-08-07T03:54:57.427Z,98542.78
2022-08-07T03:58:34.774Z,98541.47
2022-08-07T04:00:30.508Z,98531.41
2022-08-07T04:03:04.273Z,98531.66
2022-08-07T04:05:40.754Z,98535.50
2022-08-07T04:08:12.784Z,98538.75
2022-08-07T04:10:54.390Z,98544.50
2022-08-07T04:14:10.806Z,98543.13
2022-08-07T04:16:31.028Z,98547.47
2022-08-07T04:19:03.817Z,98549.63
2022-08-07T04:21:58.954Z,98543.69
2022-08-07T04:24:33.754Z,98543.41
2022-08-07T04:27:20.256Z,98551.28
2022-08-07T04:30:02.447Z,98554.00
2022-08-07T04:32:34.514Z,98562.72
2022-08-07T04:35:05.394Z,98557.78
2022-08-07T04:38:01.014Z,98568.41
2022-08-07T04:40:29.857Z,98569.75
2022-08-07T04:43:01.936Z,98570.56
2022-08-07T04:45:57.653Z,98576.53
2022-08-07T04:48:38.735Z,98575.72
2022-08-07T04:51:10.180Z,98570.84
2022-08-07T04:54:01.507Z,98567.59
2022-08-07T04:58:11.763Z,98580.63
2022-08-07T05:00:11.603Z,98570.81
2022-08-07T05:02:28.552Z,98574.31
2022-08-07T05:05:01.682Z,98574.84
2022-08-07T05:07:48.236Z,98581.41
2022-08-07T05:10:22.998Z,98574.88
2022-08-07T05:12:59.954Z,98575.97
2022-08-07T05:15:41.098Z,98575.13
2022-08-07T05:18:17.792Z,98570.78
2022-08-07T05:20:48.800Z,98582.47
2022-08-07T05:23:29.105Z,98576.44
2022-08-07T05:26:15.232Z,98578.38
2022-08-07T05:28:49.942Z,98588.72
2022-08-07T05:31:19.301Z,98586.81
2022-08-07T05:34:00.940Z,98589.78
2022-08-07T05:36:35.202Z,98588.97
2022-08-07T05:40:03.774Z,98588.16
2022-08-07T05:42:01.119Z,98592.47
2022-08-07T05:44:32.209Z,98592.69
2022-08-07T05:47:18.255Z,98594.81
2022-08-07T05:49:49.434Z,98599.16
2022-08-07T05:52:20.366Z,98600.75
2022-08-07T05:54:55.313Z,98602.94
2022-08-07T05:57:26.644Z,98597.44
2022-08-07T05:59:59.269Z,98598.75
2022-08-07T06:02:29.672Z,98598.41
2022-08-07T06:05:03.872Z,98597.84
2022-08-07T06:08:09.163Z,98605.97
2022-08-07T06:10:22.642Z,98602.13
2022-08-07T06:12:50.471Z,98608.06
2022-08-07T06:15:20.076Z,98606.91
2022-08-07T06:17:53.314Z,98601.69
2022-08-07T06:20:49.779Z,98603.28
2022-08-07T06:23:25.098Z,98602.41
2022-08-07T06:26:02.913Z,98608.88
2022-08-07T06:28:30.858Z,98603.91
2022-08-07T06:30:59.641Z,98602.16
2022-08-07T06:33:29.748Z,98592.53
2022-08-07T06:36:13.531Z,98596.81
2022-08-07T06:38:59.689Z,98588.22
2022-08-07T06:42:01.252Z,98575.06
2022-08-07T06:44:24.384Z,98576.84
2022-08-07T06:46:53.605Z,98583.34
2022-08-07T06:49:50.922Z,98582.94
2022-08-07T06:52:31.792Z,98580.91
2022-08-07T06:55:33.159Z,98577.53
2022-08-07T06:57:57.120Z,98576.59
2022-08-07T07:00:27.749Z,98574.00
2022-08-07T07:02:58.169Z,98582.84
2022-08-07T07:06:04.973Z,98579.47
2022-08-07T07:08:25.655Z,98577.91
2022-08-07T07:10:57.492Z,98569.78
2022-08-07T07:13:56.498Z,98575.09
2022-08-07T07:16:20.587Z,98573.50
2022-08-07T07:18:52.113Z,98576.00
2022-08-07T07:21:26.947Z,98584.75
2022-08-07T07:24:12.509Z,98576.44
2022-08-07T07:26:49.741Z,98577.47
2022-08-07T07:29:57.078Z,98575.41
2022-08-07T07:32:14.053Z,98578.78
2022-08-07T07:34:45.449Z,98572.63
2022-08-07T07:37:44.417Z,98581.06
2022-08-07T07:40:10.034Z,98585.28
2022-08-07T07:42:39.418Z,98577.50
2022-08-07T07:45:09.800Z,98583.06
2022-08-07T07:47:43.007Z,98577.06
2022-08-07T07:50:34.881Z,98576.66
2022-08-07T07:53:13.557Z,98574.03
2022-08-07T07:55:54.997Z,98578.09
2022-08-07T07:58:30.997Z,98567.63
2022-08-07T08:02:02.341Z,98560.72
2022-08-07T08:04:10.074Z,98565.28
2022-08-07T08:06:50.769Z,98551.84
2022-08-07T08:09:22.731Z,98548.28
2022-08-07T08:12:01.655Z,98554.41
2022-08-07T08:14:32.330Z,98547.31
2022-08-07T08:17:56.094Z,98552.63
2022-08-07T08:20:17.117Z,98555.78
2022-08-07T08:23:00.162Z,98553.66
2022-08-07T08:25:49.950Z,98548.50
2022-08-07T08:28:24.156Z,98552.34
2022-08-07T08:31:14.784Z,98550.66
2022-08-07T08:33:49.603Z,98536.34
2022-08-07T08:36:25.545Z,98531.84
2022-08-07T08:39:01.738Z,98546.03
2022-08-07T08:41:58.695Z,98538.25
2022-08-07T08:44:29.665Z,98539.13
2022-08-07T08:47:07.712Z,98539.47
2022-08-07T08:49:57.245Z,98539.81
2022-08-07T08:52:40.855Z,98545.00
2022-08-07T08:55:55.429Z,98539.59
2022-08-07T08:58:20.278Z,98546.94
2022-08-07T09:00:59.241Z,98539.75
2022-08-07T09:03:48.041Z,98539.53
2022-08-07T09:06:23.484Z,98532.34
2022-08-07T09:08:58.141Z,98541.56
2022-08-07T09:11:50.603Z,98527.91
2022-08-07T09:14:37.697Z,98535.09
2022-08-07T09:17:11.976Z,98537.00
2022-08-07T09:19:52.853Z,98531.53
2022-08-07T09:24:30.926Z,98543.19
2022-08-07T09:25:54.289Z,98546.06
2022-08-07T09:30:02.402Z,98544.97
2022-08-07T09:32:17.234Z,98550.53
2022-08-07T09:35:04.794Z,98526.53
2022-08-07T09:38:00.386Z,98530.97
2022-08-07T09:40:36.429Z,98544.91
2022-08-07T09:43:21.456Z,98532.97
2022-08-07T09:47:25.529Z,98541.06
2022-08-07T09:50:00.452Z,98537.84
2022-08-07T09:52:33.847Z,98525.63
2022-08-07T09:55:06.671Z,98526.13
2022-08-07T09:58:13.135Z,98524.78
2022-08-07T10:00:54.399Z,98520.66
2022-08-07T10:04:06.191Z,98519.00
2022-08-07T10:06:49.210Z,98509.59
2022-08-07T10:09:59.140Z,98509.97
2022-08-07T10:12:53.333Z,98502.81
2022-08-07T10:15:44.652Z,98491.53
2022-08-07T10:18:31.995Z,98488.16
2022-08-07T10:22:14.004Z,98496.94
2022-08-07T10:24:24.877Z,98486.34
2022-08-07T10:27:10.539Z,98472.16
2022-08-07T10:29:51.981Z,98474.13
2022-08-07T10:32:52.369Z,98475.59
2022-08-07T10:35:56.771Z,98468.34
2022-08-07T10:38:36.198Z,98468.94
2022-08-07T10:41:51.399Z,98459.59
2022-08-07T10:44:19.399Z,98473.06
2022-08-07T10:47:11.684Z,98463.38
2022-08-07T10:49:49.165Z,98460.44
2022-08-07T10:52:34.303Z,98441.91
2022-08-07T10:55:26.620Z,98448.97
2022-08-07T10:58:10.196Z,98437.63
2022-08-07T11:00:50.353Z,98442.41
2022-08-07T11:03:37.838Z,98427.09
2022-08-07T11:06:23.355Z,98430.03
2022-08-07T11:09:00.197Z,98433.06
2022-08-07T11:11:36.027Z,98439.31
2022-08-07T11:14:44.103Z,98425.63
2022-08-07T11:17:07.095Z,98417.16
2022-08-07T11:19:40.077Z,98415.63
2022-08-07T11:22:18.905Z,98420.00
2022-08-07T11:25:08.214Z,98415.44
2022-08-07T11:28:01.989Z,98410.00
2022-08-07T11:30:46.801Z,98406.13
2022-08-07T11:33:53.353Z,98407.72
2022-08-07T11:36:25.081Z,98414.41
2022-08-07T12:20:30.350Z,98385.78
2022-08-07T12:23:15.866Z,98378.78
2022-08-07T12:26:05.799Z,98374.38
2022-08-07T12:28:54.819Z,98361.63
2022-08-07T12:31:52.754Z,98365.75
2022-08-07T12:34:29.664Z,98364.28
2022-08-07T12:36:58.906Z,98360.66
2022-08-07T12:39:43.590Z,98364.34
2022-08-07T12:42:17.872Z,98365.28
2022-08-07T12:44:56.931Z,98361.59
2022-08-07T12:47:32.902Z,98352.63
2022-08-07T12:50:33.744Z,98354.53
2022-08-07T12:53:17.402Z,98361.25
2022-08-07T12:56:03.260Z,98362.50
2022-08-07T12:58:39.708Z,98360.75
2022-08-07T13:01:16.239Z,98347.91
2022-08-07T13:04:09.652Z,98350.09
2022-08-07T13:06:54.242Z,98350.63
2022-08-07T13:10:19.439Z,98355.53
2022-08-07T13:12:37.175Z,98337.44
2022-08-07T13:15:15.026Z,98341.75
2022-08-07T13:18:05.691Z,98334.44
2022-08-07T13:20:43.097Z,98326.69
2022-08-07T13:24:01.797Z,98329.16
2022-08-07T13:26:10.554Z,98324.78
2022-08-07T13:28:48.635Z,98327.66
2022-08-07T13:31:22.920Z,98312.56
2022-08-07T13:34:31.225Z,98315.50
2022-08-07T13:36:55.873Z,98315.06
2022-08-07T13:40:33.117Z,98317.00
2022-08-07T13:42:21.726Z,98312.88
2022-08-07T13:46:06.480Z,98313.44
2022-08-07T13:48:06.922Z,98309.81
2022-08-07T13:51:00.432Z,98303.94
2022-08-07T13:53:36.035Z,98295.38
2022-08-07T13:56:20.202Z,98302.16
2022-08-07T13:59:06.064Z,98288.00
2022-08-07T14:01:51.016Z,98288.25
2022-08-07T14:04:35.322Z,98290.34
2022-08-07T14:07:09.547Z,98279.28
2022-08-07T14:10:02.659Z,98293.13
2022-08-07T14:12:36.852Z,98285.06
2022-08-07T14:15:25.257Z,98277.25
2022-08-07T14:18:23.497Z,98277.88
2022-08-07T14:20:54.346Z,98267.91
2022-08-07T14:23:58.891Z,98269.13
2022-08-07T14:30:05.699Z,98274.72
2022-08-07T14:32:03.341Z,98272.91
2022-08-07T14:34:35.077Z,98257.16
2022-08-07T14:37:16.484Z,98257.63
2022-08-07T14:40:17.437Z,98259.69
2022-08-07T14:43:00.752Z,98260.44
2022-08-07T14:45:47.101Z,98268.16
2022-08-07T14:48:19.776Z,98259.97
2022-08-07T14:50:52.117Z,98260.69
2022-08-07T14:54:08.640Z,98259.69
2022-08-07T14:56:13.274Z,98263.63
2022-08-07T14:58:44.610Z,98259.97
2022-08-07T15:01:22.650Z,98261.50
2022-08-07T15:03:54.532Z,98249.38
2022-08-07T15:06:25.675Z,98245.84
2022-08-07T15:08:56.135Z,98246.38
2022-08-07T15:11:50.764Z,98257.72
2022-08-07T15:14:18.321Z,98259.84
2022-08-07T15:16:55.009Z,98257.97
2022-08-07T15:20:31.534Z,98250.50
2022-08-07T15:22:29.195Z,98250.91
2022-08-07T15:28:32.246Z,98246.06
2022-08-07T15:30:59.612Z,98259.50
2022-08-07T15:37:04.132Z,98245.63
2022-08-07T15:39:14.235Z,98252.72
2022-08-07T15:42:44.755Z,98252.34
2022-08-07T15:44:52.102Z,98246.44
2022-08-07T15:47:21.562Z,98247.50
2022-08-07T15:53:04.942Z,98245.81
2022-08-07T15:56:02.557Z,98247.88
2022-08-07T15:58:33.666Z,98240.19
2022-08-07T16:01:03.981Z,98237.94
2022-08-07T16:03:47.355Z,98232.84
2022-08-07T16:06:30.000Z,98230.28
2022-08-07T16:09:02.478Z,98242.59
2022-08-07T16:11:43.960Z,98237.66
2022-08-07T16:14:17.217Z,98226.13
2022-08-07T16:17:16.403Z,98224.16
2022-08-07T16:20:33.702Z,98230.06
2022-08-07T16:23:52.934Z,98237.81
2022-08-07T16:26:14.379Z,98233.19
2022-08-07T16:30:05.749Z,98233.91
2022-08-07T16:31:58.167Z,98226.19
2022-08-07T16:34:38.381Z,98232.31
2022-08-07T16:38:06.471Z,98230.34
2022-08-07T16:40:35.853Z,98225.00
2022-08-07T16:43:12.741Z,98236.75
2022-08-07T16:46:33.473Z,98231.41
2022-08-07T16:50:26.770Z,98229.44
2022-08-07T16:52:41.662Z,98237.16
2022-08-07T16:55:12.972Z,98233.13
2022-08-07T16:58:01.843Z,98236.78
2022-08-07T17:00:42.621Z,98232.31
2022-08-07T17:03:58.485Z,98230.47
2022-08-07T17:06:46.487Z,98222.53
2022-08-07T17:10:06.561Z,98229.59
2022-08-07T17:12:35.731Z,98222.66
2022-08-07T17:15:08.922Z,98232.13
2022-08-07T17:17:46.192Z,98234.19
2022-08-07T17:20:23.231Z,98234.78
2022-08-07T17:23:02.760Z,98230.53
2022-08-07T17:25:52.261Z,98227.66
2022-08-07T17:28:31.084Z,98231.34
2022-08-07T17:31:16.966Z,98233.22
2022-08-07T17:34:18.147Z,98241.66
2022-08-07T17:36:58.096Z,98249.84
2022-08-07T17:39:57.728Z,98238.72
2022-08-07T17:42:59.116Z,98248.00
2022-08-07T17:45:35.437Z,98246.66
2022-08-07T17:48:10.407Z,98242.38
2022-08-07T17:50:52.559Z,98252.34
2022-08-07T17:54:00.188Z,98244.16
2022-08-07T17:56:28.673Z,98239.50
2022-08-07T17:59:05.838Z,98245.09
2022-08-07T18:01:48.584Z,98243.03
2022-08-07T18:04:30.994Z,98252.13
2022-08-07T18:07:20.219Z,98254.34
2022-08-07T18:10:06.249Z,98245.50
2022-08-07T18:12:50.769Z,98248.22
2022-08-07T18:15:24.061Z,98254.81
2022-08-07T18:18:46.316Z,98252.63
2022-08-07T18:21:25.890Z,98261.63
2022-08-07T18:24:00.052Z,98258.19
2022-08-07T18:26:50.323Z,98266.69
2022-08-07T18:30:05.380Z,98269.47
2022-08-07T18:32:21.792Z,98267.38
2022-08-07T18:35:07.974Z,98264.75
2022-08-07T18:38:56.300Z,98272.09
2022-08-07T18:41:08.335Z,98278.09
2022-08-07T18:43:57.667Z,98278.09
2022-08-07T18:46:31.096Z,98293.72
2022-08-07T18:50:31.879Z,98289.34
2022-08-07T18:52:35.052Z,98292.84
2022-08-07T18:55:43.235Z,98304.44
2022-08-07T18:58:15.052Z,98309.44
2022-08-07T19:00:54.922Z,98305.75
2022-08-07T19:03:36.162Z,98310.88
2022-08-07T19:06:16.465Z,98318.25
2022-08-07T19:09:00.672Z,98324.81
2022-08-07T19:12:04.558Z,98325.63
2022-08-07T19:15:03.115Z,98324.28
2022-08-07T19:18:02.687Z,98335.03
2022-08-07T19:20:37.110Z,98328.13
2022-08-07T19:23:18.924Z,98341.59
2022-08-07T19:26:25.326Z,98347.28
2022-08-07T19:30:53.947Z,98351.69
2022-08-07T19:32:08.295Z,98344.91
2022-08-07T19:34:33.874Z,98349.31
2022-08-07T19:37:17.565Z,98353.72
2022-08-07T19:39:57.710Z,98350.03
2022-08-07T19:42:40.284Z,98347.44
2022-08-07T19:46:04.657Z,98347.78
2022-08-07T19:48:18.102Z,98349.09
2022-08-07T19:50:53.091Z,98357.00
2022-08-07T19:54:30.051Z,98342.63
2022-08-07T19:56:58.619Z,98351.34
2022-08-07T19:59:16.520Z,98348.94
2022-08-07T20:01:57.180Z,98342.16
2022-08-07T20:04:31.857Z,98340.22
2022-08-07T20:07:09.047Z,98351.19
2022-08-07T20:10:12.590Z,98350.41
2022-08-07T20:12:35.988Z,98348.94
2022-08-07T20:15:09.537Z,98349.88
2022-08-07T20:17:40.320Z,98345.19
2022-08-07T20:20:15.752Z,98347.78
2022-08-07T20:22:47.803Z,98349.91
2022-08-07T20:25:19.792Z,98347.97
2022-08-07T20:27:57.941Z,98349.25
2022-08-07T20:30:32.636Z,98347.31
2022-08-07T20:33:03.487Z,98347.03
2022-08-07T20:35:36.578Z,98347.34
2022-08-07T20:38:24.747Z,98353.00
2022-08-07T20:40:56.184Z,98342.22
2022-08-07T20:43:27.608Z,98345.59
2022-08-07T20:46:26.476Z,98336.06
2022-08-07T20:49:54.659Z,98342.22
2022-08-07T20:51:36.102Z,98336.22
2022-08-07T20:54:15.362Z,98339.63
2022-08-07T20:57:03.933Z,98338.44
2022-08-07T21:00:06.605Z,98340.88
2022-08-07T21:02:54.190Z,98330.66
2022-08-07T21:05:42.931Z,98338.72
2022-08-07T21:08:15.673Z,98333.72
2022-08-07T21:10:47.286Z,98331.78
2022-08-07T21:13:19.280Z,98337.91
2022-08-07T21:16:00.421Z,98330.31
2022-08-07T21:18:34.204Z,98344.84
2022-08-07T21:21:05.923Z,98343.69
2022-08-07T21:23:52.508Z,98332.06
2022-08-07T21:26:30.670Z,98348.16
2022-08-07T21:29:02.560Z,98333.56
2022-08-07T21:32:42.405Z,98335.81
2022-08-07T21:34:33.324Z,98334.53
2022-08-07T21:37:05.237Z,98327.38
2022-08-07T21:39:46.201Z,98337.41
2022-08-07T21:42:42.376Z,98328.00
2022-08-07T21:46:07.847Z,98341.84
2022-08-07T21:48:28.559Z,98339.25
2022-08-07T21:51:19.334Z,98331.47
2022-08-07T21:53:52.672Z,98344.19
2022-08-07T21:56:40.393Z,98349.66
2022-08-07T22:00:02.789Z,98361.53
2022-08-07T22:02:28.721Z,98356.31
2022-08-07T22:05:05.725Z,98365.47
2022-08-07T22:07:59.747Z,98358.38
2022-08-07T22:10:33.756Z,98356.78
2022-08-07T22:13:09.034Z,98351.94
2022-08-07T22:16:39.458Z,98357.28
2022-08-07T22:18:39.253Z,98356.22
2022-08-07T22:21:19.313Z,98371.44
2022-08-07T22:23:52.568Z,98365.72
2022-08-07T22:26:24.816Z,98358.63
2022-08-07T22:28:59.442Z,98355.22
2022-08-07T22:31:59.035Z,98376.00
2022-08-07T22:34:29.255Z,98376.00
2022-08-07T22:37:09.727Z,98371.66
2022-08-07T22:39:52.781Z,98370.16
2022-08-07T22:42:25.800Z,98371.97
2022-08-07T22:46:04.380Z,98370.34
2022-08-07T22:48:13.658Z,98364.25
2022-08-07T22:51:16.497Z,98368.53
2022-08-07T22:54:06.527Z,98371.25
2022-08-07T22:56:48.673Z,98369.63
2022-08-07T22:59:49.937Z,98368.63
2022-08-07T23:02:35.786Z,98376.41
2022-08-07T23:06:09.121Z,98372.69
2022-08-07T23:08:45.847Z,98369.34
2022-08-07T23:11:29.251Z,98371.69
2022-08-07T23:14:23.886Z,98365.00
2022-08-07T23:17:20.486Z,98369.03
2022-08-07T23:20:14.026Z,98373.59
2022-08-07T23:23:06.851Z,98368.31
2022-08-07T23:25:51.697Z,98364.69
2022-08-07T23:28:34.841Z,98365.50
2022-08-07T23:31:18.527Z,98372.50
2022-08-07T23:34:46.724Z,98374.63
2022-08-07T23:37:29.613Z,98374.13
2022-08-07T23:40:09.877Z,98372.69
2022-08-07T23:42:53.358Z,98373.06
2022-08-07T23:46:01.621Z,98372.88
2022-08-07T23:48:30.704Z,98361.31
2022-08-07T23:51:01.461Z,98362.72
2022-08-07T23:53:51.515Z,98357.66
2022-08-07T23:56:27.961Z,98364.56
